Time;durP1;ratioP1;P1;durP2;ratioP2;P2;SDS_P1;SDS_P2;PMS_P1;PMS_P2;Temp;Humidity;BMP_temperature;BMP_pressure;BME280_temperature;BME280_humidity;BME280_pressure;Samples;Min_cycle;Max_cycle;Signal;HPM_P1;HPM_P2
2023/10/21 00:02:23;;;;;;;49.88;27.30;;;12.20;99.90;;;;;;5024763;28;20045;-62
2023/10/21 00:04:49;;;;;;;51.83;27.23;;;12.20;99.90;;;;;;5039626;28;20051;-62
2023/10/21 00:07:15;;;;;;;46.60;25.65;;;12.30;99.90;;;;;;5026636;28;20044;-62
2023/10/21 00:09:43;;;;;;;52.58;26.55;;;12.20;99.90;;;;;;5037526;28;20041;-62
2023/10/21 00:12:09;;;;;;;46.00;25.23;;;12.30;99.90;;;;;;5021279;28;20521;-62
2023/10/21 00:14:35;;;;;;;44.97;23.88;;;12.30;99.90;;;;;;5040474;28;20049;-62
2023/10/21 00:17:01;;;;;;;49.15;24.70;;;12.30;99.90;;;;;;5037175;28;20044;-62
2023/10/21 00:19:26;;;;;;;44.30;24.73;;;12.20;99.90;;;;;;5039589;28;20052;-62
2023/10/21 00:21:53;;;;;;;43.70;23.95;;;12.20;99.90;;;;;;5039152;28;20098;-62
2023/10/21 00:24:19;;;;;;;41.60;24.23;;;12.20;99.90;;;;;;5040920;28;20033;-62
2023/10/21 00:26:47;;;;;;;43.38;23.17;;;12.30;99.90;;;;;;5036345;28;20072;-62
2023/10/21 00:29:16;;;;;;;43.03;23.45;;;12.20;99.90;;;;;;5039548;28;20045;-62
2023/10/21 00:31:43;;;;;;;42.35;23.17;;;12.20;99.90;;;;;;5040153;28;20037;-62
2023/10/21 00:34:12;;;;;;;44.40;23.48;;;12.20;99.90;;;;;;5036224;28;20053;-62
2023/10/21 00:36:38;;;;;;;48.03;23.70;;;12.20;99.90;;;;;;5042814;28;20070;-62
2023/10/21 00:39:10;;;;;;;43.70;22.92;;;12.10;99.90;;;;;;5043400;28;20496;-62
2023/10/21 00:41:37;;;;;;;39.17;21.63;;;12.10;99.90;;;;;;5039607;28;20057;-62
2023/10/21 00:44:04;;;;;;;45.10;22.67;;;12.10;99.90;;;;;;5022963;28;20043;-62
2023/10/21 00:46:33;;;;;;;44.70;22.85;;;12.10;99.90;;;;;;5042321;28;20495;-62
2023/10/21 00:49:00;;;;;;;40.80;22.80;;;12.10;99.90;;;;;;5037867;28;20064;-62
2023/10/21 00:51:26;;;;;;;44.47;22.10;;;12.10;99.90;;;;;;5041830;28;20037;-61
2023/10/21 00:53:54;;;;;;;47.35;22.40;;;12.10;99.90;;;;;;5042144;28;20071;-62
2023/10/21 00:56:19;;;;;;;45.05;22.33;;;12.10;99.90;;;;;;5042569;28;20044;-62
2023/10/21 00:58:45;;;;;;;42.60;22.38;;;12.10;99.90;;;;;;5045899;28;20500;-62
2023/10/21 01:01:13;;;;;;;43.95;21.23;;;12.10;99.90;;;;;;5041100;28;20045;-62
2023/10/21 01:03:40;;;;;;;35.95;18.90;;;12.10;99.90;;;;;;5010988;28;20063;-62
2023/10/21 01:06:06;;;;;;;47.25;21.67;;;12.10;99.90;;;;;;5041622;28;20049;-62
2023/10/21 01:08:42;;;;;;;37.70;19.80;;;12.10;99.90;;;;;;5041745;28;20162;-62
2023/10/21 01:11:09;;;;;;;40.75;22.05;;;12.10;99.90;;;;;;5041368;28;20041;-62
2023/10/21 01:13:38;;;;;;;37.40;20.67;;;12.10;99.90;;;;;;5039859;28;20305;-62
2023/10/21 01:16:04;;;;;;;43.10;20.73;;;12.10;99.90;;;;;;5040355;28;20484;-62
2023/10/21 01:18:33;;;;;;;42.38;20.83;;;12.10;99.90;;;;;;5025523;28;20065;-62
2023/10/21 01:21:01;;;;;;;41.38;20.88;;;12.10;99.90;;;;;;5037547;28;20094;-62
2023/10/21 01:23:31;;;;;;;38.58;19.50;;;12.10;99.90;;;;;;5038417;28;20461;-62
2023/10/21 01:25:57;;;;;;;39.15;19.88;;;12.10;99.90;;;;;;5042491;28;20049;-62
2023/10/21 01:28:23;;;;;;;34.15;18.83;;;12.10;99.90;;;;;;5037068;28;20094;-62
2023/10/21 01:30:48;;;;;;;34.55;17.88;;;12.10;99.90;;;;;;5045919;28;20326;-62
2023/10/21 01:33:14;;;;;;;40.78;19.80;;;12.10;99.90;;;;;;5040531;28;20048;-62
2023/10/21 01:35:40;;;;;;;34.25;19.05;;;12.10;99.90;;;;;;5036884;28;20518;-62
2023/10/21 01:38:06;;;;;;;35.28;17.85;;;12.10;99.90;;;;;;5041300;28;20040;-62
2023/10/21 01:40:31;;;;;;;30.83;18.08;;;12.10;99.90;;;;;;5040756;28;20067;-62
2023/10/21 01:42:57;;;;;;;40.38;19.85;;;12.10;99.90;;;;;;5024061;28;20516;-62
2023/10/21 01:45:23;;;;;;;32.35;18.40;;;12.10;99.90;;;;;;5036532;28;20067;-62
2023/10/21 01:47:49;;;;;;;37.35;18.95;;;12.10;99.90;;;;;;5026776;28;20037;-62
2023/10/21 01:50:15;;;;;;;34.50;18.02;;;12.10;99.90;;;;;;5041753;28;20067;-62
2023/10/21 01:52:40;;;;;;;35.90;18.48;;;12.10;99.90;;;;;;5025541;28;20116;-62
2023/10/21 01:55:08;;;;;;;34.42;18.08;;;12.10;99.90;;;;;;5025602;28;20562;-62
2023/10/21 01:57:34;;;;;;;37.50;19.40;;;12.10;99.90;;;;;;5044179;28;20075;-62
2023/10/21 02:00:01;;;;;;;35.00;18.88;;;12.10;99.90;;;;;;5040879;28;20045;-62
2023/10/21 02:02:30;;;;;;;34.70;18.17;;;12.10;99.90;;;;;;5027517;28;20048;-62
2023/10/21 02:04:56;;;;;;;37.60;19.02;;;12.00;99.90;;;;;;5028139;28;20045;-62
2023/10/21 02:07:22;;;;;;;29.55;17.20;;;12.10;99.90;;;;;;5043175;28;20064;-62
2023/10/21 02:09:48;;;;;;;36.10;18.15;;;12.10;99.90;;;;;;5037776;28;20492;-62
2023/10/21 02:12:14;;;;;;;31.23;16.95;;;12.00;99.90;;;;;;5042248;28;20033;-62
2023/10/21 02:14:40;;;;;;;36.30;17.85;;;12.00;99.90;;;;;;5025619;28;20522;-62
2023/10/21 02:17:06;;;;;;;31.40;16.10;;;12.00;99.90;;;;;;5040479;28;20072;-62
2023/10/21 02:19:35;;;;;;;30.98;16.45;;;12.00;99.90;;;;;;5040082;28;20041;-62
2023/10/21 02:22:00;;;;;;;29.13;15.52;;;12.00;99.90;;;;;;5025489;28;20060;-62
2023/10/21 02:24:26;;;;;;;30.70;16.02;;;12.00;99.90;;;;;;5038422;28;20130;-62
2023/10/21 02:26:52;;;;;;;29.50;15.25;;;12.00;99.90;;;;;;5022445;28;20498;-62
2023/10/21 02:29:18;;;;;;;27.25;15.02;;;12.00;99.90;;;;;;5043273;28;20076;-62
2023/10/21 02:31:43;;;;;;;28.05;15.30;;;12.00;99.90;;;;;;5042755;28;20533;-62
2023/10/21 02:34:09;;;;;;;30.77;15.30;;;11.90;99.90;;;;;;5042244;28;20144;-62
2023/10/21 02:36:35;;;;;;;24.27;14.73;;;11.90;99.90;;;;;;5039804;28;20403;-62
2023/10/21 02:39:01;;;;;;;26.30;14.02;;;11.90;99.90;;;;;;5042033;28;20044;-62
2023/10/21 02:41:27;;;;;;;29.23;14.57;;;11.90;99.90;;;;;;5042852;28;20048;-62
2023/10/21 02:43:53;;;;;;;26.98;14.93;;;11.90;99.90;;;;;;5042693;28;20128;-62
2023/10/21 02:46:19;;;;;;;25.00;13.02;;;11.90;99.90;;;;;;5039186;28;20078;-61
2023/10/21 02:48:45;;;;;;;29.45;15.32;;;11.90;99.90;;;;;;5023423;28;20424;-61
2023/10/21 02:51:17;;;;;;;22.77;13.93;;;11.90;99.90;;;;;;5041454;28;20499;-62
2023/10/21 02:53:44;;;;;;;24.02;13.68;;;11.90;99.90;;;;;;5035477;28;20496;-61
2023/10/21 02:56:11;;;;;;;30.38;14.57;;;11.90;99.90;;;;;;5040427;28;20041;-62
2023/10/21 02:58:37;;;;;;;27.63;13.30;;;11.90;99.90;;;;;;5026000;28;20080;-62
2023/10/21 03:01:12;;;;;;;24.05;13.38;;;11.90;99.90;;;;;;5042167;28;20492;-61
2023/10/21 03:03:37;;;;;;;24.10;13.25;;;11.80;99.90;;;;;;5042044;28;20044;-62
2023/10/21 03:06:03;;;;;;;19.85;12.57;;;11.90;99.90;;;;;;5025529;28;20489;-62
2023/10/21 03:08:29;;;;;;;24.75;13.52;;;11.80;99.90;;;;;;5040040;28;20065;-62
2023/10/21 03:10:55;;;;;;;19.90;12.13;;;11.90;99.90;;;;;;5036284;28;20658;-62
2023/10/21 03:13:21;;;;;;;20.45;11.90;;;11.90;99.90;;;;;;5039171;28;20051;-62
2023/10/21 03:15:46;;;;;;;20.92;12.77;;;11.80;99.90;;;;;;5037173;28;20029;-61
2023/10/21 03:18:12;;;;;;;25.33;13.02;;;11.80;99.90;;;;;;5039883;28;20453;-62
2023/10/21 03:20:38;;;;;;;24.13;12.52;;;11.80;99.90;;;;;;5043563;28;20049;-62
2023/10/21 03:23:04;;;;;;;21.73;12.60;;;11.80;99.90;;;;;;5026560;28;20466;-62
2023/10/21 03:25:33;;;;;;;20.30;11.98;;;11.80;99.90;;;;;;5040273;28;20037;-62
2023/10/21 03:27:59;;;;;;;21.02;12.10;;;11.80;99.90;;;;;;5037605;28;20041;-61
2023/10/21 03:30:25;;;;;;;23.73;12.40;;;11.80;99.90;;;;;;5040029;28;20044;-62
2023/10/21 03:32:50;;;;;;;24.30;11.43;;;11.80;99.90;;;;;;5010238;28;20029;-62
2023/10/21 03:35:16;;;;;;;21.13;11.23;;;11.80;99.90;;;;;;5023093;28;20610;-61
2023/10/21 03:37:42;;;;;;;19.05;10.68;;;11.80;99.90;;;;;;5023972;28;20036;-62
2023/10/21 03:40:10;;;;;;;19.95;10.88;;;11.70;99.90;;;;;;5041045;28;20839;-62
2023/10/21 03:42:37;;;;;;;19.67;11.88;;;11.70;99.90;;;;;;5041854;28;20132;-62
2023/10/21 03:45:07;;;;;;;22.67;11.20;;;11.70;99.90;;;;;;5036059;28;20144;-62
2023/10/21 03:47:34;;;;;;;18.17;11.00;;;11.70;99.90;;;;;;5025423;28;20115;-62
2023/10/21 03:49:59;;;;;;;21.35;11.25;;;11.70;99.90;;;;;;5038881;28;20071;-62
2023/10/21 03:52:28;;;;;;;23.83;11.52;;;11.70;99.90;;;;;;5041588;28;20057;-62
2023/10/21 03:54:54;;;;;;;16.45;10.98;;;11.70;99.90;;;;;;5037476;28;20483;-62
2023/10/21 03:57:22;;;;;;;20.15;10.43;;;11.70;99.90;;;;;;5019473;28;20044;-62
2023/10/21 03:59:48;;;;;;;20.23;10.23;;;11.70;99.90;;;;;;5049310;28;20136;-62
2023/10/21 04:02:16;;;;;;;20.02;10.93;;;11.70;99.90;;;;;;5039390;28;20132;-62
2023/10/21 04:04:42;;;;;;;18.52;10.98;;;11.70;99.90;;;;;;5034615;28;20056;-62
2023/10/21 04:07:08;;;;;;;16.08;10.77;;;11.70;99.90;;;;;;5050466;28;20040;-62
2023/10/21 04:09:33;;;;;;;20.63;10.88;;;11.70;99.90;;;;;;5041845;28;20040;-62
2023/10/21 04:11:59;;;;;;;19.98;11.32;;;11.70;99.90;;;;;;5039268;28;20058;-62
2023/10/21 04:14:25;;;;;;;25.45;11.68;;;11.70;99.90;;;;;;5028086;28;20064;-62
2023/10/21 04:16:50;;;;;;;20.15;11.23;;;11.60;99.90;;;;;;5044661;28;20045;-62
2023/10/21 04:19:16;;;;;;;21.00;11.75;;;11.60;99.90;;;;;;5046065;28;20044;-60
2023/10/21 04:21:42;;;;;;;21.42;12.60;;;11.60;99.90;;;;;;5060371;28;20044;-61
2023/10/21 04:24:08;;;;;;;21.35;12.25;;;11.60;99.90;;;;;;5047505;28;20047;-61
2023/10/21 04:26:34;;;;;;;27.50;14.02;;;11.60;99.90;;;;;;5045076;28;20106;-61
2023/10/21 04:29:00;;;;;;;22.23;13.07;;;11.50;99.90;;;;;;5044644;28;20095;-61
2023/10/21 04:31:25;;;;;;;25.88;13.77;;;11.50;99.90;;;;;;5040842;28;20040;-61
2023/10/21 04:33:51;;;;;;;20.25;12.35;;;11.50;99.90;;;;;;5048866;28;20032;-61
2023/10/21 04:36:20;;;;;;;25.35;14.82;;;11.50;99.90;;;;;;5041820;28;20033;-61
2023/10/21 04:38:46;;;;;;;27.08;15.32;;;11.50;99.90;;;;;;5044111;28;20051;-60
2023/10/21 04:41:11;;;;;;;28.77;16.67;;;11.50;99.90;;;;;;5042706;28;20041;-61
2023/10/21 04:43:37;;;;;;;31.20;16.30;;;11.40;99.90;;;;;;5044895;28;20126;-61
2023/10/21 04:46:03;;;;;;;32.35;17.48;;;11.40;99.90;;;;;;5045448;28;20402;-61
2023/10/21 04:48:28;;;;;;;32.40;17.27;;;11.40;99.90;;;;;;5027799;28;20059;-61
2023/10/21 04:50:54;;;;;;;36.25;18.95;;;11.40;99.90;;;;;;5029524;28;20071;-61
2023/10/21 04:53:20;;;;;;;27.80;16.02;;;11.40;99.90;;;;;;5041941;28;20045;-61
2023/10/21 04:55:46;;;;;;;33.35;19.38;;;11.40;99.90;;;;;;5044382;28;20051;-61
2023/10/21 04:58:11;;;;;;;34.95;18.95;;;11.40;99.90;;;;;;5040831;28;20036;-61
2023/10/21 05:00:37;;;;;;;31.33;19.20;;;11.40;99.90;;;;;;5047027;28;20415;-60
2023/10/21 05:03:03;;;;;;;37.92;19.50;;;11.40;99.90;;;;;;5037763;28;20703;-61
2023/10/21 05:05:29;;;;;;;36.00;20.48;;;11.30;99.90;;;;;;5043820;28;20042;-61
2023/10/21 05:07:57;;;;;;;39.38;19.25;;;11.40;99.90;;;;;;5038130;28;20091;-61
2023/10/21 05:10:23;;;;;;;38.63;20.52;;;11.30;99.90;;;;;;5036633;28;20489;-61
2023/10/21 05:12:49;;;;;;;39.70;21.98;;;11.40;99.90;;;;;;5037032;28;20032;-61
2023/10/21 05:15:15;;;;;;;36.70;21.88;;;11.40;99.90;;;;;;5041426;28;20045;-61
2023/10/21 05:17:44;;;;;;;40.40;22.70;;;11.40;99.90;;;;;;5042634;28;20049;-61
2023/10/21 05:20:11;;;;;;;39.15;22.92;;;11.40;99.90;;;;;;5042200;28;20561;-61
2023/10/21 05:22:37;;;;;;;37.60;22.38;;;11.40;99.90;;;;;;5041664;28;20083;-61
2023/10/21 05:25:04;;;;;;;46.10;23.75;;;11.40;99.90;;;;;;5042823;28;20053;-61
2023/10/21 05:27:29;;;;;;;44.58;23.33;;;11.40;99.90;;;;;;5038929;28;20447;-61
2023/10/21 05:29:55;;;;;;;47.03;24.60;;;11.40;99.90;;;;;;5041429;28;20045;-61
2023/10/21 05:32:21;;;;;;;40.55;23.10;;;11.40;99.90;;;;;;5039315;28;20583;-61
2023/10/21 05:34:47;;;;;;;45.78;25.05;;;11.40;99.90;;;;;;5022030;28;20037;-60
2023/10/21 05:37:13;;;;;;;42.72;23.38;;;11.40;99.90;;;;;;5038911;28;20116;-61
2023/10/21 05:39:39;;;;;;;40.97;23.63;;;11.40;99.90;;;;;;5026870;28;20136;-61
2023/10/21 05:42:08;;;;;;;37.50;22.55;;;11.40;99.90;;;;;;5045075;28;20047;-61
2023/10/21 05:44:35;;;;;;;40.40;23.63;;;11.40;99.90;;;;;;5041670;28;20045;-61
2023/10/21 05:47:01;;;;;;;43.80;24.23;;;11.40;99.90;;;;;;5043383;28;20036;-61
2023/10/21 05:49:27;;;;;;;45.45;25.70;;;11.30;99.90;;;;;;5042574;28;20389;-61
2023/10/21 05:51:53;;;;;;;40.45;23.83;;;11.40;99.90;;;;;;5044497;28;20505;-61
2023/10/21 05:54:19;;;;;;;36.63;22.40;;;11.30;99.90;;;;;;5026985;28;20033;-61
2023/10/21 05:56:47;;;;;;;40.53;23.08;;;11.40;99.90;;;;;;5023898;28;20049;-61
2023/10/21 05:59:13;;;;;;;41.17;22.83;;;11.30;99.90;;;;;;5023931;28;20042;-61
2023/10/21 06:01:39;;;;;;;40.80;22.55;;;11.30;99.90;;;;;;5041340;28;20059;-61
2023/10/21 06:04:05;;;;;;;38.65;22.23;;;11.30;99.90;;;;;;5040543;28;20325;-61
2023/10/21 06:06:30;;;;;;;43.75;23.83;;;11.30;99.90;;;;;;5042791;28;20361;-61
2023/10/21 06:08:56;;;;;;;41.40;23.88;;;11.30;99.90;;;;;;5027469;28;20434;-60
2023/10/21 06:11:22;;;;;;;47.90;23.63;;;11.30;99.90;;;;;;5040945;28;20518;-61
2023/10/21 06:13:48;;;;;;;41.67;23.17;;;11.30;99.90;;;;;;5037938;28;20051;-61
2023/10/21 06:16:13;;;;;;;37.50;24.63;;;11.30;99.90;;;;;;5040982;28;20444;-61
2023/10/21 06:18:40;;;;;;;36.15;22.00;;;11.30;99.90;;;;;;5043254;28;20405;-61
2023/10/21 06:21:09;;;;;;;40.08;22.83;;;11.30;99.90;;;;;;5041146;28;20048;-61
2023/10/21 06:23:34;;;;;;;36.67;21.60;;;11.40;99.90;;;;;;5044553;28;20053;-61
2023/10/21 06:26:00;;;;;;;39.90;22.65;;;11.40;99.90;;;;;;5043492;28;20123;-61
2023/10/21 06:28:26;;;;;;;37.75;23.55;;;11.40;99.90;;;;;;5021706;28;20399;-61
2023/10/21 06:30:51;;;;;;;38.55;22.85;;;11.40;99.90;;;;;;5034990;28;20121;-60
2023/10/21 06:33:17;;;;;;;40.15;23.40;;;11.40;99.90;;;;;;5006146;28;20037;-61
2023/10/21 06:35:44;;;;;;;41.83;24.23;;;11.40;99.90;;;;;;5024474;28;20045;-61
2023/10/21 06:38:10;;;;;;;40.53;23.20;;;11.40;99.90;;;;;;5041527;28;20111;-61
2023/10/21 06:40:35;;;;;;;37.53;23.58;;;11.50;99.90;;;;;;5026872;28;20044;-61
2023/10/21 06:43:01;;;;;;;43.47;23.55;;;11.50;99.90;;;;;;5041968;28;20132;-61
2023/10/21 06:45:27;;;;;;;37.78;22.73;;;11.50;99.90;;;;;;5038866;28;20037;-61
2023/10/21 06:47:55;;;;;;;41.17;23.50;;;11.50;99.90;;;;;;5041840;28;20045;-61
2023/10/21 06:50:21;;;;;;;42.10;24.35;;;11.50;99.90;;;;;;5042179;28;20574;-61
2023/10/21 06:52:47;;;;;;;39.28;24.40;;;11.50;99.90;;;;;;5043167;28;20041;-61
2023/10/21 06:55:13;;;;;;;37.60;22.25;;;11.50;99.90;;;;;;5040948;28;20048;-61
2023/10/21 06:57:39;;;;;;;41.42;22.35;;;11.50;99.90;;;;;;5041282;28;20048;-61
2023/10/21 07:00:05;;;;;;;37.33;22.05;;;11.50;99.90;;;;;;5038599;28;20040;-61
2023/10/21 07:02:32;;;;;;;38.25;20.75;;;11.60;99.90;;;;;;5022580;28;20041;-61
2023/10/21 07:04:58;;;;;;;36.45;21.50;;;11.60;99.90;;;;;;5039515;28;20044;-60
2023/10/21 07:07:23;;;;;;;39.03;22.52;;;11.60;99.90;;;;;;5039640;28;20044;-61
2023/10/21 07:09:49;;;;;;;35.20;21.08;;;11.60;99.90;;;;;;5033230;28;20095;-61
2023/10/21 07:12:15;;;;;;;35.33;22.00;;;11.60;99.90;;;;;;5042225;28;20033;-61
2023/10/21 07:14:40;;;;;;;36.25;21.33;;;11.70;99.90;;;;;;5040932;28;20662;-61
2023/10/21 07:17:07;;;;;;;35.50;22.08;;;11.70;99.90;;;;;;5042105;28;20560;-61
2023/10/21 07:19:35;;;;;;;33.30;21.45;;;11.70;99.90;;;;;;5038090;28;20139;-61
2023/10/21 07:22:01;;;;;;;33.08;19.83;;;11.80;99.90;;;;;;5018382;28;20081;-59
2023/10/21 07:24:27;;;;;;;37.63;21.00;;;11.80;99.90;;;;;;5039957;28;20077;-61
2023/10/21 07:26:52;;;;;;;34.03;21.60;;;11.80;99.90;;;;;;5021454;28;20680;-61
2023/10/21 07:29:18;;;;;;;38.20;21.95;;;11.80;99.90;;;;;;5040245;28;20041;-61
2023/10/21 07:31:44;;;;;;;35.42;21.55;;;11.90;99.90;;;;;;5041900;28;20045;-61
2023/10/21 07:34:11;;;;;;;35.58;21.95;;;11.90;99.90;;;;;;5024550;28;20037;-61
2023/10/21 07:36:37;;;;;;;30.45;20.80;;;11.90;99.90;;;;;;5038681;28;20040;-61
2023/10/21 07:39:04;;;;;;;31.65;20.67;;;11.90;99.90;;;;;;5024266;28;20099;-61
2023/10/21 07:41:30;;;;;;;33.50;20.27;;;11.90;99.90;;;;;;5060511;28;20040;-61
2023/10/21 07:43:56;;;;;;;34.83;20.88;;;12.00;99.90;;;;;;5013971;28;20450;-61
2023/10/21 07:46:21;;;;;;;32.50;21.08;;;12.00;99.90;;;;;;5044267;28;20427;-60
2023/10/21 07:48:47;;;;;;;37.42;21.77;;;12.10;99.90;;;;;;5043127;28;20045;-61
2023/10/21 07:51:13;;;;;;;31.92;21.17;;;12.10;99.90;;;;;;5044942;28;20044;-61
2023/10/21 07:53:38;;;;;;;35.40;21.15;;;12.10;99.90;;;;;;5046471;28;20041;-61
2023/10/21 07:56:04;;;;;;;33.95;20.80;;;12.10;99.90;;;;;;5026578;28;20476;-60
2023/10/21 07:58:30;;;;;;;32.45;21.13;;;12.20;99.90;;;;;;5028977;28;20032;-61
2023/10/21 08:00:56;;;;;;;32.30;20.45;;;12.30;99.90;;;;;;5025216;28;20087;-61
2023/10/21 08:03:24;;;;;;;32.25;19.75;;;12.30;99.90;;;;;;5026138;28;20183;-61
2023/10/21 08:05:50;;;;;;;34.72;19.00;;;12.30;99.90;;;;;;5027089;28;20037;-61
2023/10/21 08:08:16;;;;;;;27.80;18.40;;;12.40;99.90;;;;;;5043822;28;20514;-61
2023/10/21 08:10:41;;;;;;;32.13;19.50;;;12.50;99.90;;;;;;5042883;28;20125;-61
2023/10/21 08:13:07;;;;;;;34.38;19.05;;;12.50;99.90;;;;;;5043614;28;20503;-61
2023/10/21 08:15:33;;;;;;;29.77;19.13;;;12.60;99.90;;;;;;5042467;28;20045;-60
2023/10/21 08:17:59;;;;;;;29.98;18.42;;;12.70;99.90;;;;;;5042111;28;20038;-61
2023/10/21 08:20:24;;;;;;;28.25;17.90;;;12.80;99.90;;;;;;5026258;28;20047;-61
2023/10/21 08:22:51;;;;;;;27.95;17.80;;;12.80;99.90;;;;;;5045053;28;20071;-60
2023/10/21 08:25:16;;;;;;;28.60;18.40;;;13.00;99.90;;;;;;5039599;28;20456;-61
2023/10/21 08:27:43;;;;;;;28.00;17.90;;;13.00;99.90;;;;;;5027450;28;20120;-61
2023/10/21 08:30:09;;;;;;;32.28;18.88;;;13.10;99.90;;;;;;5046202;28;20443;-59
2023/10/21 08:32:36;;;;;;;29.08;19.13;;;13.20;99.90;;;;;;5026269;28;20048;-61
2023/10/21 08:35:02;;;;;;;33.13;19.63;;;13.30;99.90;;;;;;5038897;28;20534;-61
2023/10/21 08:37:28;;;;;;;31.50;19.00;;;13.40;99.90;;;;;;5038208;28;20475;-61
2023/10/21 08:39:54;;;;;;;31.92;19.25;;;13.40;99.90;;;;;;5042107;28;20037;-61
2023/10/21 08:42:25;;;;;;;26.98;18.92;;;13.50;99.90;;;;;;5038156;28;20033;-61
2023/10/21 08:44:54;;;;;;;28.05;18.25;;;13.50;99.90;;;;;;5039937;28;20036;-61
2023/10/21 08:47:21;;;;;;;27.30;18.17;;;13.50;99.90;;;;;;5041099;28;20404;-61
2023/10/21 08:49:49;;;;;;;24.55;17.83;;;13.60;99.90;;;;;;5020780;28;20295;-62
2023/10/21 08:52:15;;;;;;;25.33;16.67;;;13.60;99.90;;;;;;5038397;28;20076;-62
2023/10/21 08:54:43;;;;;;;27.15;16.45;;;13.70;99.90;;;;;;5025031;28;20038;-62
2023/10/21 08:57:09;;;;;;;26.70;16.05;;;13.70;99.90;;;;;;5041635;28;20041;-62
2023/10/21 08:59:36;;;;;;;23.30;16.50;;;13.80;99.90;;;;;;5037907;28;20045;-61
2023/10/21 09:02:03;;;;;;;20.08;14.88;;;13.80;99.90;;;;;;5035847;28;20137;-61
2023/10/21 09:04:31;;;;;;;20.60;13.77;;;13.90;99.90;;;;;;5023027;28;20044;-62
2023/10/21 09:06:59;;;;;;;20.02;13.75;;;14.00;99.90;;;;;;5041362;28;20099;-62
2023/10/21 09:09:29;;;;;;;18.60;12.77;;;14.00;99.90;;;;;;5039123;28;20408;-62
2023/10/21 09:12:10;;;;;;;24.33;12.73;;;14.10;99.90;;;;;;5035831;28;21436;-62
2023/10/21 09:14:56;;;;;;;20.20;11.88;;;14.10;99.90;;;;;;5040628;28;20041;-62
2023/10/21 09:17:45;;;;;;;17.00;11.57;;;14.20;99.90;;;;;;5043654;28;20044;-62
2023/10/21 09:20:13;;;;;;;19.85;11.00;;;14.20;99.90;;;;;;5033402;28;20085;-62
2023/10/21 09:22:40;;;;;;;14.15;10.27;;;14.30;99.90;;;;;;5044017;28;20144;-62
2023/10/21 09:25:20;;;;;;;16.90;9.70;;;14.30;99.90;;;;;;5037447;28;20052;-62
2023/10/21 09:27:52;;;;;;;19.30;9.63;;;14.40;99.90;;;;;;5030294;28;20063;-62
2023/10/21 09:30:24;;;;;;;15.00;9.38;;;14.30;99.90;;;;;;5022912;28;20137;-62
2023/10/21 09:32:51;;;;;;;14.60;9.82;;;14.30;99.90;;;;;;5035473;28;20105;-62
2023/10/21 09:35:25;;;;;;;13.55;8.77;;;14.30;99.90;;;;;;5036036;28;20033;-62
2023/10/21 09:37:51;;;;;;;12.38;8.23;;;14.30;99.90;;;;;;5043741;28;20490;-62
2023/10/21 09:40:18;;;;;;;13.88;8.85;;;14.30;99.90;;;;;;5022855;28;20360;-62
2023/10/21 09:42:44;;;;;;;15.00;8.60;;;14.30;99.90;;;;;;5037841;28;20041;-61
2023/10/21 09:45:15;;;;;;;17.10;9.07;;;14.30;99.90;;;;;;5044403;28;20060;-61
2023/10/21 09:47:43;;;;;;;11.18;8.27;;;14.30;99.90;;;;;;5035913;28;20241;-61
2023/10/21 09:50:11;;;;;;;14.35;8.23;;;14.40;99.90;;;;;;5043160;28;20460;-61
2023/10/21 09:52:51;;;;;;;14.90;8.10;;;14.40;99.90;;;;;;5036419;28;23017;-61
2023/10/21 09:55:24;;;;;;;15.57;8.43;;;14.40;99.90;;;;;;5021282;28;20040;-59
2023/10/21 09:57:52;;;;;;;11.75;7.40;;;14.40;99.90;;;;;;5039607;28;20056;-59
2023/10/21 10:00:19;;;;;;;12.40;8.00;;;14.40;99.90;;;;;;5026764;28;20045;-60
2023/10/21 10:02:48;;;;;;;14.70;7.38;;;14.30;99.90;;;;;;5042814;28;20706;-61
2023/10/21 10:05:16;;;;;;;11.98;7.38;;;14.40;99.90;;;;;;5041893;28;20044;-62
2023/10/21 10:07:44;;;;;;;11.23;7.22;;;14.30;99.90;;;;;;5039491;28;20087;-61
2023/10/21 10:10:15;;;;;;;11.43;6.70;;;14.30;99.90;;;;;;5044298;28;20389;-61
2023/10/21 10:12:49;;;;;;;12.30;6.18;;;14.30;99.90;;;;;;5041841;28;20036;-61
2023/10/21 10:15:37;;;;;;;10.57;5.72;;;14.30;99.90;;;;;;5025070;28;20041;-59
2023/10/21 10:18:05;;;;;;;8.02;5.35;;;14.20;99.90;;;;;;5041067;28;20116;-61
2023/10/21 10:20:31;;;;;;;9.10;4.93;;;14.20;99.90;;;;;;5039199;28;20585;-61
2023/10/21 10:23:00;;;;;;;6.95;4.15;;;14.20;99.90;;;;;;5040566;28;20123;-61
2023/10/21 10:25:39;;;;;;;7.75;4.28;;;14.20;99.90;;;;;;5042838;28;20064;-61
2023/10/21 10:28:05;;;;;;;7.07;4.05;;;14.20;99.90;;;;;;5036693;28;20041;-61
2023/10/21 10:30:32;;;;;;;6.18;3.20;;;14.20;99.90;;;;;;5040281;28;20039;-61
2023/10/21 10:33:06;;;;;;;5.75;3.47;;;14.20;99.90;;;;;;5039194;28;20605;-60
2023/10/21 10:35:39;;;;;;;5.82;3.05;;;14.20;99.90;;;;;;5039832;28;20487;-61
2023/10/21 10:38:36;;;;;;;4.18;3.13;;;14.30;99.90;;;;;;5036224;28;20071;-61
2023/10/21 10:41:09;;;;;;;6.20;3.40;;;14.20;99.90;;;;;;5036196;28;20053;-59
2023/10/21 10:43:39;;;;;;;5.20;3.60;;;14.20;99.90;;;;;;5042830;28;20191;-61
2023/10/21 10:46:06;;;;;;;4.80;3.33;;;14.30;99.90;;;;;;5052436;28;20044;-60
2023/10/21 10:48:34;;;;;;;5.10;3.10;;;14.30;99.90;;;;;;5037967;28;20045;-60
2023/10/21 10:51:18;;;;;;;5.15;3.67;;;14.30;99.90;;;;;;5036426;28;20047;-60
2023/10/21 10:53:56;;;;;;;;;;;14.40;99.90;;;;;;5024786;28;20040;-61
2023/10/21 10:56:25;;;;;;;5.85;3.10;;;14.40;99.90;;;;;;5026116;28;20002;-61
2023/10/21 10:58:52;;;;;;;4.88;3.47;;;14.30;99.90;;;;;;5034826;28;20519;-61
2023/10/21 11:01:26;;;;;;;3.70;2.90;;;14.30;99.90;;;;;;5038741;28;20059;-60
2023/10/21 11:03:56;;;;;;;2.72;2.20;;;14.30;99.90;;;;;;5036983;28;20511;-61
2023/10/21 11:06:23;;;;;;;4.22;2.45;;;14.30;99.90;;;;;;5037179;28;20467;-61
2023/10/21 11:08:52;;;;;;;4.13;2.25;;;14.20;99.90;;;;;;5033855;28;20052;-61
2023/10/21 11:11:18;;;;;;;5.45;3.15;;;14.20;99.90;;;;;;5034000;28;20094;-61
2023/10/21 11:13:43;;;;;;;5.63;3.13;;;14.20;99.90;;;;;;5037668;28;20033;-60
2023/10/21 11:16:11;;;;;;;5.78;2.83;;;14.20;99.90;;;;;;5033479;28;20123;-60
2023/10/21 11:18:38;;;;;;;6.78;3.60;;;14.20;99.90;;;;;;5026503;28;20088;-59
2023/10/21 11:21:05;;;;;;;5.47;2.83;;;14.30;99.90;;;;;;5043448;28;20041;-59
2023/10/21 11:23:31;;;;;;;5.38;2.92;;;14.30;99.90;;;;;;5029556;28;20045;-60
2023/10/21 11:26:01;;;;;;;4.00;2.80;;;14.40;99.90;;;;;;5021224;28;20067;-58
2023/10/21 11:28:28;;;;;;;6.68;3.33;;;14.40;99.90;;;;;;5038985;28;20075;-61
2023/10/21 11:30:55;;;;;;;5.70;3.05;;;14.40;99.90;;;;;;5023601;28;20296;-60
2023/10/21 11:33:22;;;;;;;4.03;2.35;;;14.40;99.90;;;;;;5018587;28;20056;-61
2023/10/21 11:35:51;;;;;;;5.32;2.00;;;14.40;99.90;;;;;;5025562;28;20504;-61
2023/10/21 11:38:17;;;;;;;4.78;2.17;;;14.40;99.90;;;;;;5021432;28;20056;-59
2023/10/21 11:40:44;;;;;;;5.63;2.10;;;14.40;99.90;;;;;;5036940;28;20048;-59
2023/10/21 11:43:12;;;;;;;4.32;1.92;;;14.40;99.90;;;;;;5038426;28;20120;-60
2023/10/21 11:45:41;;;;;;;2.15;1.60;;;14.40;99.90;;;;;;5036780;28;20475;-60
2023/10/21 11:48:11;;;;;;;3.30;1.50;;;14.40;99.90;;;;;;5034110;28;20053;-59
2023/10/21 11:50:38;;;;;;;3.50;1.77;;;14.50;99.90;;;;;;5040227;28;20314;-60
2023/10/21 11:53:05;;;;;;;2.50;1.30;;;14.50;99.90;;;;;;5041403;28;20131;-60
2023/10/21 12:42:50;;;;;;;3.83;1.08;;;15.10;99.90;;;;;;5026997;28;20535;-60
2023/10/21 12:45:19;;;;;;;4.90;1.60;;;15.30;99.90;;;;;;5025786;28;20560;-60
2023/10/21 12:47:48;;;;;;;3.78;1.27;;;15.40;99.90;;;;;;5044321;28;20132;-60
2023/10/21 12:50:16;;;;;;;2.72;0.98;;;15.40;99.90;;;;;;5040321;28;20333;-60
2023/10/21 12:52:47;;;;;;;2.92;1.20;;;15.60;99.90;;;;;;5036710;28;20364;-61
2023/10/21 12:55:14;;;;;;;3.83;1.08;;;15.70;99.90;;;;;;5026980;28;20064;-61
2023/10/21 12:57:43;;;;;;;4.20;1.05;;;15.70;99.90;;;;;;5045548;28;20037;-61
2023/10/21 13:00:12;;;;;;;2.75;1.05;;;15.70;99.90;;;;;;5040498;28;20680;-61
2023/10/21 13:02:40;;;;;;;2.97;1.10;;;15.60;99.90;;;;;;5024769;28;20048;-61
2023/10/21 13:05:07;;;;;;;5.15;1.23;;;15.40;99.90;;;;;;5044968;28;20483;-61
2023/10/21 13:07:38;;;;;;;3.20;1.20;;;15.40;99.90;;;;;;5044291;28;20041;-61
2023/10/21 13:10:05;;;;;;;2.30;1.20;;;15.30;99.90;;;;;;5026521;28;20060;-61
2023/10/21 13:12:31;;;;;;;4.65;1.20;;;15.20;99.90;;;;;;5029873;28;20041;-61
2023/10/21 13:14:56;;;;;;;2.67;1.00;;;15.10;99.90;;;;;;5042742;28;20037;-60
2023/10/21 13:17:22;;;;;;;3.55;0.90;;;15.10;99.90;;;;;;5042904;28;20107;-61
2023/10/21 13:19:48;;;;;;;2.28;0.93;;;15.00;99.90;;;;;;5023955;28;20033;-61